sensor_id;sensor_type;location;lat;lon;timestamp;P1;durP1;ratioP1;P2;durP2;ratioP2
83929;SDS011;73959;52.130;5.584;2024-02-28T00:00:04;79.82;;;33.58;;
83929;SDS011;73959;52.130;5.584;2024-02-28T00:02:30;68.97;;;31.55;;
83929;SDS011;73959;52.130;5.584;2024-02-28T00:04:56;71.60;;;32.53;;
83929;SDS011;73959;52.130;5.584;2024-02-28T00:07:25;72.75;;;33.08;;
83929;SDS011;73959;52.130;5.584;2024-02-28T00:09:51;82.47;;;34.10;;
83929;SDS011;73959;52.130;5.584;2024-02-28T00:12:17;69.72;;;31.77;;
83929;SDS011;73959;52.130;5.584;2024-02-28T00:14:44;64.60;;;29.65;;
83929;SDS011;73959;52.130;5.584;2024-02-28T00:17:11;69.63;;;29.42;;
83929;SDS011;73959;52.130;5.584;2024-02-28T00:19:37;67.65;;;29.15;;
83929;SDS011;73959;52.130;5.584;2024-02-28T00:22:03;60.90;;;28.48;;
83929;SDS011;73959;52.130;5.584;2024-02-28T00:24:29;59.72;;;27.73;;
83929;SDS011;73959;52.130;5.584;2024-02-28T00:26:55;64.95;;;29.52;;
83929;SDS011;73959;52.130;5.584;2024-02-28T00:29:21;60.13;;;27.58;;
83929;SDS011;73959;52.130;5.584;2024-02-28T00:31:47;61.38;;;29.45;;
83929;SDS011;73959;52.130;5.584;2024-02-28T00:34:13;61.38;;;28.73;;
83929;SDS011;73959;52.130;5.584;2024-02-28T00:36:39;63.22;;;29.25;;
83929;SDS011;73959;52.130;5.584;2024-02-28T00:39:05;71.95;;;31.63;;
83929;SDS011;73959;52.130;5.584;2024-02-28T00:41:31;69.32;;;31.23;;
83929;SDS011;73959;52.130;5.584;2024-02-28T00:43:57;69.32;;;30.90;;
83929;SDS011;73959;52.130;5.584;2024-02-28T00:46:23;68.55;;;30.25;;
83929;SDS011;73959;52.130;5.584;2024-02-28T00:48:49;65.20;;;30.00;;
83929;SDS011;73959;52.130;5.584;2024-02-28T00:51:15;69.00;;;29.92;;
83929;SDS011;73959;52.130;5.584;2024-02-28T00:53:41;69.57;;;30.48;;
83929;SDS011;73959;52.130;5.584;2024-02-28T00:56:08;69.32;;;29.80;;
83929;SDS011;73959;52.130;5.584;2024-02-28T00:58:34;61.92;;;28.45;;
83929;SDS011;73959;52.130;5.584;2024-02-28T01:01:00;63.92;;;30.10;;
83929;SDS011;73959;52.130;5.584;2024-02-28T01:03:26;62.22;;;28.83;;
83929;SDS011;73959;52.130;5.584;2024-02-28T01:05:52;73.05;;;30.70;;
83929;SDS011;73959;52.130;5.584;2024-02-28T01:08:18;116.93;;;30.13;;
83929;SDS011;73959;52.130;5.584;2024-02-28T01:10:44;63.78;;;28.10;;
83929;SDS011;73959;52.130;5.584;2024-02-28T01:13:11;67.50;;;27.77;;
83929;SDS011;73959;52.130;5.584;2024-02-28T01:15:39;92.57;;;28.70;;
83929;SDS011;73959;52.130;5.584;2024-02-28T01:18:05;113.50;;;29.55;;
83929;SDS011;73959;52.130;5.584;2024-02-28T01:20:31;111.78;;;29.02;;
83929;SDS011;73959;52.130;5.584;2024-02-28T01:22:57;83.15;;;28.05;;
83929;SDS011;73959;52.130;5.584;2024-02-28T01:25:23;122.50;;;30.27;;
83929;SDS011;73959;52.130;5.584;2024-02-28T01:27:49;77.10;;;29.45;;
83929;SDS011;73959;52.130;5.584;2024-02-28T01:30:15;124.00;;;29.42;;
83929;SDS011;73959;52.130;5.584;2024-02-28T01:32:41;112.63;;;27.85;;
83929;SDS011;73959;52.130;5.584;2024-02-28T01:35:08;70.45;;;27.30;;
83929;SDS011;73959;52.130;5.584;2024-02-28T01:37:34;161.25;;;28.45;;
83929;SDS011;73959;52.130;5.584;2024-02-28T01:40:00;93.72;;;26.55;;
83929;SDS011;73959;52.130;5.584;2024-02-28T01:42:26;113.90;;;28.48;;
83929;SDS011;73959;52.130;5.584;2024-02-28T01:44:52;108.88;;;28.42;;
83929;SDS011;73959;52.130;5.584;2024-02-28T01:47:18;130.45;;;26.90;;
83929;SDS011;73959;52.130;5.584;2024-02-28T01:49:44;134.02;;;27.52;;
83929;SDS011;73959;52.130;5.584;2024-02-28T01:52:11;176.13;;;28.05;;
83929;SDS011;73959;52.130;5.584;2024-02-28T01:54:37;215.77;;;29.33;;
83929;SDS011;73959;52.130;5.584;2024-02-28T01:57:04;128.10;;;27.83;;
83929;SDS011;73959;52.130;5.584;2024-02-28T01:59:31;70.88;;;26.08;;
83929;SDS011;73959;52.130;5.584;2024-02-28T02:01:57;100.07;;;27.10;;
83929;SDS011;73959;52.130;5.584;2024-02-28T02:04:23;130.05;;;28.38;;
83929;SDS011;73959;52.130;5.584;2024-02-28T02:06:49;164.75;;;30.35;;
83929;SDS011;73959;52.130;5.584;2024-02-28T02:09:19;182.55;;;28.60;;
83929;SDS011;73959;52.130;5.584;2024-02-28T02:11:45;87.70;;;26.48;;
83929;SDS011;73959;52.130;5.584;2024-02-28T02:14:10;139.52;;;27.70;;
83929;SDS011;73959;52.130;5.584;2024-02-28T02:16:36;194.50;;;28.25;;
83929;SDS011;73959;52.130;5.584;2024-02-28T02:19:03;148.60;;;28.65;;
83929;SDS011;73959;52.130;5.584;2024-02-28T02:21:35;145.85;;;28.52;;
83929;SDS011;73959;52.130;5.584;2024-02-28T02:24:03;92.88;;;25.13;;
83929;SDS011;73959;52.130;5.584;2024-02-28T02:26:29;164.48;;;27.45;;
83929;SDS011;73959;52.130;5.584;2024-02-28T02:28:55;146.00;;;26.63;;
83929;SDS011;73959;52.130;5.584;2024-02-28T02:31:21;127.13;;;25.90;;
83929;SDS011;73959;52.130;5.584;2024-02-28T02:33:47;135.07;;;26.48;;
83929;SDS011;73959;52.130;5.584;2024-02-28T02:36:13;150.57;;;26.92;;
83929;SDS011;73959;52.130;5.584;2024-02-28T02:38:39;133.10;;;26.35;;
83929;SDS011;73959;52.130;5.584;2024-02-28T02:41:05;100.65;;;24.05;;
83929;SDS011;73959;52.130;5.584;2024-02-28T02:43:31;69.07;;;24.52;;
83929;SDS011;73959;52.130;5.584;2024-02-28T02:45:56;81.65;;;24.00;;
83929;SDS011;73959;52.130;5.584;2024-02-28T02:48:22;88.40;;;24.30;;
83929;SDS011;73959;52.130;5.584;2024-02-28T02:50:48;69.47;;;25.40;;
83929;SDS011;73959;52.130;5.584;2024-02-28T02:53:14;68.60;;;25.92;;
83929;SDS011;73959;52.130;5.584;2024-02-28T02:55:40;77.45;;;24.02;;
83929;SDS011;73959;52.130;5.584;2024-02-28T02:58:06;61.92;;;23.90;;
83929;SDS011;73959;52.130;5.584;2024-02-28T03:00:32;50.45;;;23.02;;
83929;SDS011;73959;52.130;5.584;2024-02-28T03:02:58;43.25;;;21.83;;
83929;SDS011;73959;52.130;5.584;2024-02-28T03:05:24;48.83;;;23.35;;
83929;SDS011;73959;52.130;5.584;2024-02-28T03:07:50;46.53;;;23.48;;
83929;SDS011;73959;52.130;5.584;2024-02-28T03:10:16;42.88;;;22.23;;
83929;SDS011;73959;52.130;5.584;2024-02-28T03:12:42;44.47;;;23.10;;
83929;SDS011;73959;52.130;5.584;2024-02-28T03:15:08;44.72;;;22.48;;
83929;SDS011;73959;52.130;5.584;2024-02-28T03:17:34;42.70;;;22.58;;
83929;SDS011;73959;52.130;5.584;2024-02-28T03:20:00;42.72;;;21.92;;
83929;SDS011;73959;52.130;5.584;2024-02-28T03:22:26;45.67;;;22.80;;
83929;SDS011;73959;52.130;5.584;2024-02-28T03:24:52;48.50;;;24.55;;
83929;SDS011;73959;52.130;5.584;2024-02-28T03:27:18;54.35;;;24.52;;
83929;SDS011;73959;52.130;5.584;2024-02-28T03:29:44;49.75;;;23.10;;
83929;SDS011;73959;52.130;5.584;2024-02-28T03:32:10;53.25;;;24.00;;
83929;SDS011;73959;52.130;5.584;2024-02-28T03:34:36;57.67;;;24.88;;
83929;SDS011;73959;52.130;5.584;2024-02-28T03:37:02;50.22;;;24.08;;
83929;SDS011;73959;52.130;5.584;2024-02-28T03:39:28;55.63;;;25.67;;
83929;SDS011;73959;52.130;5.584;2024-02-28T03:41:54;45.97;;;23.55;;
83929;SDS011;73959;52.130;5.584;2024-02-28T03:44:21;49.80;;;23.42;;
83929;SDS011;73959;52.130;5.584;2024-02-28T03:46:47;43.85;;;23.05;;
83929;SDS011;73959;52.130;5.584;2024-02-28T03:49:13;43.22;;;22.70;;
83929;SDS011;73959;52.130;5.584;2024-02-28T03:51:39;48.33;;;24.13;;
83929;SDS011;73959;52.130;5.584;2024-02-28T03:54:06;47.78;;;24.20;;
83929;SDS011;73959;52.130;5.584;2024-02-28T03:56:32;43.30;;;23.25;;
83929;SDS011;73959;52.130;5.584;2024-02-28T03:58:58;41.63;;;23.05;;
83929;SDS011;73959;52.130;5.584;2024-02-28T04:01:23;48.65;;;25.23;;
83929;SDS011;73959;52.130;5.584;2024-02-28T04:03:49;42.13;;;23.70;;
83929;SDS011;73959;52.130;5.584;2024-02-28T04:06:15;41.22;;;22.83;;
83929;SDS011;73959;52.130;5.584;2024-02-28T04:08:41;42.47;;;23.38;;
83929;SDS011;73959;52.130;5.584;2024-02-28T04:11:07;44.05;;;23.17;;
83929;SDS011;73959;52.130;5.584;2024-02-28T04:13:33;42.42;;;22.67;;
83929;SDS011;73959;52.130;5.584;2024-02-28T04:15:59;41.25;;;22.25;;
83929;SDS011;73959;52.130;5.584;2024-02-28T04:18:25;40.67;;;22.50;;
83929;SDS011;73959;52.130;5.584;2024-02-28T04:20:51;40.22;;;21.95;;
83929;SDS011;73959;52.130;5.584;2024-02-28T04:23:17;41.67;;;21.95;;
83929;SDS011;73959;52.130;5.584;2024-02-28T04:25:43;34.63;;;20.40;;
83929;SDS011;73959;52.130;5.584;2024-02-28T04:28:09;39.25;;;21.80;;
83929;SDS011;73959;52.130;5.584;2024-02-28T04:30:35;36.58;;;20.80;;
83929;SDS011;73959;52.130;5.584;2024-02-28T04:33:01;35.95;;;21.02;;
83929;SDS011;73959;52.130;5.584;2024-02-28T04:35:27;37.22;;;21.52;;
83929;SDS011;73959;52.130;5.584;2024-02-28T04:37:53;36.78;;;20.85;;
83929;SDS011;73959;52.130;5.584;2024-02-28T04:40:19;37.05;;;20.75;;
83929;SDS011;73959;52.130;5.584;2024-02-28T04:42:45;37.17;;;20.88;;
83929;SDS011;73959;52.130;5.584;2024-02-28T04:45:11;36.97;;;21.45;;
83929;SDS011;73959;52.130;5.584;2024-02-28T04:47:37;34.25;;;20.75;;
83929;SDS011;73959;52.130;5.584;2024-02-28T04:50:04;38.58;;;22.67;;
83929;SDS011;73959;52.130;5.584;2024-02-28T04:52:33;38.38;;;21.65;;
83929;SDS011;73959;52.130;5.584;2024-02-28T04:54:59;38.10;;;21.38;;
83929;SDS011;73959;52.130;5.584;2024-02-28T04:57:25;36.67;;;21.42;;
83929;SDS011;73959;52.130;5.584;2024-02-28T04:59:51;36.80;;;21.45;;
83929;SDS011;73959;52.130;5.584;2024-02-28T05:02:18;39.15;;;22.27;;
83929;SDS011;73959;52.130;5.584;2024-02-28T05:04:44;38.17;;;21.88;;
83929;SDS011;73959;52.130;5.584;2024-02-28T05:07:10;35.00;;;20.60;;
83929;SDS011;73959;52.130;5.584;2024-02-28T05:09:36;36.97;;;22.33;;
83929;SDS011;73959;52.130;5.584;2024-02-28T05:12:02;40.85;;;22.13;;
83929;SDS011;73959;52.130;5.584;2024-02-28T05:14:28;37.45;;;22.33;;
83929;SDS011;73959;52.130;5.584;2024-02-28T05:16:54;43.70;;;22.98;;
83929;SDS011;73959;52.130;5.584;2024-02-28T05:19:20;36.33;;;21.42;;
83929;SDS011;73959;52.130;5.584;2024-02-28T05:21:46;36.42;;;22.00;;
83929;SDS011;73959;52.130;5.584;2024-02-28T05:24:13;44.50;;;22.63;;
83929;SDS011;73959;52.130;5.584;2024-02-28T05:26:39;33.22;;;20.10;;
83929;SDS011;73959;52.130;5.584;2024-02-28T05:29:05;30.38;;;19.90;;
83929;SDS011;73959;52.130;5.584;2024-02-28T05:31:31;32.00;;;20.55;;
83929;SDS011;73959;52.130;5.584;2024-02-28T05:33:58;35.03;;;19.70;;
83929;SDS011;73959;52.130;5.584;2024-02-28T05:36:24;31.65;;;20.13;;
83929;SDS011;73959;52.130;5.584;2024-02-28T05:38:51;31.65;;;20.80;;
83929;SDS011;73959;52.130;5.584;2024-02-28T05:41:17;31.85;;;20.33;;
83929;SDS011;73959;52.130;5.584;2024-02-28T05:43:43;32.15;;;19.83;;
83929;SDS011;73959;52.130;5.584;2024-02-28T05:46:10;30.20;;;19.65;;
83929;SDS011;73959;52.130;5.584;2024-02-28T05:48:36;30.73;;;19.98;;
83929;SDS011;73959;52.130;5.584;2024-02-28T05:51:02;32.15;;;20.48;;
83929;SDS011;73959;52.130;5.584;2024-02-28T05:53:28;30.13;;;19.45;;
83929;SDS011;73959;52.130;5.584;2024-02-28T05:55:57;31.65;;;21.13;;
83929;SDS011;73959;52.130;5.584;2024-02-28T05:58:23;30.67;;;20.50;;
83929;SDS011;73959;52.130;5.584;2024-02-28T06:00:50;32.38;;;19.90;;
83929;SDS011;73959;52.130;5.584;2024-02-28T06:03:16;30.10;;;20.15;;
83929;SDS011;73959;52.130;5.584;2024-02-28T06:05:42;34.13;;;21.15;;
83929;SDS011;73959;52.130;5.584;2024-02-28T06:08:08;34.92;;;21.90;;
83929;SDS011;73959;52.130;5.584;2024-02-28T06:10:34;33.35;;;21.27;;
83929;SDS011;73959;52.130;5.584;2024-02-28T06:13:00;37.40;;;21.80;;
83929;SDS011;73959;52.130;5.584;2024-02-28T06:15:26;34.78;;;21.77;;
83929;SDS011;73959;52.130;5.584;2024-02-28T06:17:52;36.45;;;21.77;;
83929;SDS011;73959;52.130;5.584;2024-02-28T06:20:18;33.10;;;20.55;;
83929;SDS011;73959;52.130;5.584;2024-02-28T06:22:44;38.42;;;22.13;;
83929;SDS011;73959;52.130;5.584;2024-02-28T06:25:10;36.85;;;22.45;;
83929;SDS011;73959;52.130;5.584;2024-02-28T06:27:43;35.55;;;22.58;;
83929;SDS011;73959;52.130;5.584;2024-02-28T06:30:10;37.35;;;22.63;;
83929;SDS011;73959;52.130;5.584;2024-02-28T06:32:37;37.45;;;22.20;;
83929;SDS011;73959;52.130;5.584;2024-02-28T06:35:04;32.45;;;21.48;;
83929;SDS011;73959;52.130;5.584;2024-02-28T06:37:30;38.05;;;23.05;;
83929;SDS011;73959;52.130;5.584;2024-02-28T06:39:56;36.03;;;21.85;;
83929;SDS011;73959;52.130;5.584;2024-02-28T06:42:22;38.67;;;23.23;;
83929;SDS011;73959;52.130;5.584;2024-02-28T06:44:48;44.25;;;23.77;;
83929;SDS011;73959;52.130;5.584;2024-02-28T06:47:14;37.55;;;22.83;;
83929;SDS011;73959;52.130;5.584;2024-02-28T06:49:40;40.67;;;24.63;;
83929;SDS011;73959;52.130;5.584;2024-02-28T06:52:06;43.95;;;24.23;;
83929;SDS011;73959;52.130;5.584;2024-02-28T06:54:32;41.88;;;24.13;;
83929;SDS011;73959;52.130;5.584;2024-02-28T06:56:58;40.40;;;24.35;;
83929;SDS011;73959;52.130;5.584;2024-02-28T06:59:23;43.70;;;24.30;;
83929;SDS011;73959;52.130;5.584;2024-02-28T07:01:49;38.75;;;23.48;;
83929;SDS011;73959;52.130;5.584;2024-02-28T07:04:15;36.90;;;23.85;;
83929;SDS011;73959;52.130;5.584;2024-02-28T07:06:42;37.05;;;24.02;;
83929;SDS011;73959;52.130;5.584;2024-02-28T07:09:08;37.13;;;23.90;;
83929;SDS011;73959;52.130;5.584;2024-02-28T07:11:34;40.88;;;24.83;;
83929;SDS011;73959;52.130;5.584;2024-02-28T07:14:00;41.15;;;25.05;;
83929;SDS011;73959;52.130;5.584;2024-02-28T07:16:30;44.15;;;25.95;;
83929;SDS011;73959;52.130;5.584;2024-02-28T07:18:58;44.20;;;26.00;;
83929;SDS011;73959;52.130;5.584;2024-02-28T07:21:24;49.38;;;26.05;;
83929;SDS011;73959;52.130;5.584;2024-02-28T07:23:50;43.70;;;27.15;;
83929;SDS011;73959;52.130;5.584;2024-02-28T07:26:16;42.75;;;26.92;;
83929;SDS011;73959;52.130;5.584;2024-02-28T07:28:42;44.30;;;27.55;;
83929;SDS011;73959;52.130;5.584;2024-02-28T07:31:14;41.85;;;25.80;;
83929;SDS011;73959;52.130;5.584;2024-02-28T07:33:40;45.85;;;26.70;;
83929;SDS011;73959;52.130;5.584;2024-02-28T07:36:06;44.15;;;27.75;;
83929;SDS011;73959;52.130;5.584;2024-02-28T07:38:33;40.95;;;26.83;;
83929;SDS011;73959;52.130;5.584;2024-02-28T07:40:59;46.55;;;28.95;;
83929;SDS011;73959;52.130;5.584;2024-02-28T07:43:25;45.58;;;27.95;;
83929;SDS011;73959;52.130;5.584;2024-02-28T07:45:51;44.00;;;28.58;;
83929;SDS011;73959;52.130;5.584;2024-02-28T07:48:17;46.78;;;29.08;;
83929;SDS011;73959;52.130;5.584;2024-02-28T07:50:46;51.97;;;30.77;;
83929;SDS011;73959;52.130;5.584;2024-02-28T07:53:15;50.35;;;29.67;;
83929;SDS011;73959;52.130;5.584;2024-02-28T07:55:41;46.95;;;29.77;;
83929;SDS011;73959;52.130;5.584;2024-02-28T07:58:07;48.20;;;30.10;;
83929;SDS011;73959;52.130;5.584;2024-02-28T08:00:34;48.15;;;31.63;;
83929;SDS011;73959;52.130;5.584;2024-02-28T08:03:00;46.00;;;30.42;;
83929;SDS011;73959;52.130;5.584;2024-02-28T08:05:26;43.30;;;30.38;;
83929;SDS011;73959;52.130;5.584;2024-02-28T08:07:52;49.25;;;29.80;;
83929;SDS011;73959;52.130;5.584;2024-02-28T08:10:18;45.03;;;30.13;;
83929;SDS011;73959;52.130;5.584;2024-02-28T08:12:44;43.90;;;29.67;;
83929;SDS011;73959;52.130;5.584;2024-02-28T08:15:10;51.35;;;31.27;;
83929;SDS011;73959;52.130;5.584;2024-02-28T08:17:36;46.90;;;30.02;;
83929;SDS011;73959;52.130;5.584;2024-02-28T08:20:02;48.65;;;30.65;;
83929;SDS011;73959;52.130;5.584;2024-02-28T08:22:30;51.42;;;30.90;;
83929;SDS011;73959;52.130;5.584;2024-02-28T08:24:55;48.03;;;31.10;;
83929;SDS011;73959;52.130;5.584;2024-02-28T08:27:21;46.70;;;30.55;;
83929;SDS011;73959;52.130;5.584;2024-02-28T08:29:48;51.53;;;31.77;;
83929;SDS011;73959;52.130;5.584;2024-02-28T08:32:14;51.30;;;31.20;;
83929;SDS011;73959;52.130;5.584;2024-02-28T08:34:44;52.85;;;31.98;;
83929;SDS011;73959;52.130;5.584;2024-02-28T08:37:11;49.00;;;31.67;;
83929;SDS011;73959;52.130;5.584;2024-02-28T08:39:37;55.53;;;32.30;;
83929;SDS011;73959;52.130;5.584;2024-02-28T08:42:03;53.00;;;33.20;;
83929;SDS011;73959;52.130;5.584;2024-02-28T08:44:29;47.53;;;30.27;;
83929;SDS011;73959;52.130;5.584;2024-02-28T08:46:55;47.55;;;31.90;;
83929;SDS011;73959;52.130;5.584;2024-02-28T08:49:21;45.72;;;30.95;;
83929;SDS011;73959;52.130;5.584;2024-02-28T08:51:47;49.70;;;31.90;;
83929;SDS011;73959;52.130;5.584;2024-02-28T08:54:13;47.92;;;31.35;;
83929;SDS011;73959;52.130;5.584;2024-02-28T08:56:39;46.60;;;30.50;;
83929;SDS011;73959;52.130;5.584;2024-02-28T08:59:05;45.25;;;30.70;;
83929;SDS011;73959;52.130;5.584;2024-02-28T09:01:31;44.28;;;29.80;;
83929;SDS011;73959;52.130;5.584;2024-02-28T09:03:59;43.28;;;28.30;;
83929;SDS011;73959;52.130;5.584;2024-02-28T09:06:25;45.20;;;28.83;;
83929;SDS011;73959;52.130;5.584;2024-02-28T09:08:52;45.47;;;30.08;;
83929;SDS011;73959;52.130;5.584;2024-02-28T09:11:18;44.00;;;29.48;;
83929;SDS011;73959;52.130;5.584;2024-02-28T09:13:43;40.17;;;27.67;;
83929;SDS011;73959;52.130;5.584;2024-02-28T09:16:09;46.92;;;30.33;;
83929;SDS011;73959;52.130;5.584;2024-02-28T09:18:35;43.25;;;27.10;;
83929;SDS011;73959;52.130;5.584;2024-02-28T09:21:01;45.55;;;28.73;;
83929;SDS011;73959;52.130;5.584;2024-02-28T09:23:27;46.47;;;28.70;;
83929;SDS011;73959;52.130;5.584;2024-02-28T09:25:53;43.80;;;29.77;;
83929;SDS011;73959;52.130;5.584;2024-02-28T09:28:21;50.05;;;30.98;;
83929;SDS011;73959;52.130;5.584;2024-02-28T09:30:47;45.08;;;29.27;;
83929;SDS011;73959;52.130;5.584;2024-02-28T09:33:15;47.33;;;29.23;;
83929;SDS011;73959;52.130;5.584;2024-02-28T09:35:42;46.22;;;29.83;;
83929;SDS011;73959;52.130;5.584;2024-02-28T09:38:08;50.65;;;30.05;;
83929;SDS011;73959;52.130;5.584;2024-02-28T09:40:34;51.83;;;30.80;;
83929;SDS011;73959;52.130;5.584;2024-02-28T09:43:01;47.25;;;28.52;;
83929;SDS011;73959;52.130;5.584;2024-02-28T09:45:30;47.17;;;29.63;;
83929;SDS011;73959;52.130;5.584;2024-02-28T09:47:59;49.78;;;28.70;;
83929;SDS011;73959;52.130;5.584;2024-02-28T09:50:26;46.72;;;29.60;;
83929;SDS011;73959;52.130;5.584;2024-02-28T09:52:52;49.20;;;29.83;;
83929;SDS011;73959;52.130;5.584;2024-02-28T09:55:18;44.45;;;30.08;;
83929;SDS011;73959;52.130;5.584;2024-02-28T09:57:45;51.92;;;31.63;;
83929;SDS011;73959;52.130;5.584;2024-02-28T10:00:12;49.72;;;30.38;;
83929;SDS011;73959;52.130;5.584;2024-02-28T10:02:39;53.03;;;32.22;;
83929;SDS011;73959;52.130;5.584;2024-02-28T10:05:06;54.45;;;33.95;;
83929;SDS011;73959;52.130;5.584;2024-02-28T10:07:32;53.28;;;33.80;;
83929;SDS011;73959;52.130;5.584;2024-02-28T10:09:58;54.90;;;32.55;;
83929;SDS011;73959;52.130;5.584;2024-02-28T10:12:24;53.55;;;32.75;;
83929;SDS011;73959;52.130;5.584;2024-02-28T10:14:50;57.97;;;34.70;;
83929;SDS011;73959;52.130;5.584;2024-02-28T10:17:16;62.63;;;35.13;;
83929;SDS011;73959;52.130;5.584;2024-02-28T10:19:42;61.30;;;34.67;;
83929;SDS011;73959;52.130;5.584;2024-02-28T10:22:08;64.88;;;36.47;;
83929;SDS011;73959;52.130;5.584;2024-02-28T10:24:34;61.00;;;36.97;;
83929;SDS011;73959;52.130;5.584;2024-02-28T10:27:02;59.53;;;36.10;;
83929;SDS011;73959;52.130;5.584;2024-02-28T10:29:28;58.63;;;36.42;;
83929;SDS011;73959;52.130;5.584;2024-02-28T10:31:57;53.22;;;34.28;;
83929;SDS011;73959;52.130;5.584;2024-02-28T10:34:23;59.88;;;35.35;;
83929;SDS011;73959;52.130;5.584;2024-02-28T10:36:50;54.63;;;33.42;;
83929;SDS011;73959;52.130;5.584;2024-02-28T10:39:16;50.05;;;29.55;;
83929;SDS011;73959;52.130;5.584;2024-02-28T10:41:42;52.80;;;34.35;;
83929;SDS011;73959;52.130;5.584;2024-02-28T10:44:08;58.85;;;35.33;;
83929;SDS011;73959;52.130;5.584;2024-02-28T10:46:38;61.25;;;35.22;;
83929;SDS011;73959;52.130;5.584;2024-02-28T10:49:04;57.88;;;35.53;;
83929;SDS011;73959;52.130;5.584;2024-02-28T10:51:33;59.33;;;35.38;;
83929;SDS011;73959;52.130;5.584;2024-02-28T10:56:30;56.97;;;34.00;;
83929;SDS011;73959;52.130;5.584;2024-02-28T10:58:57;64.00;;;33.97;;
83929;SDS011;73959;52.130;5.584;2024-02-28T11:01:24;57.63;;;34.65;;
83929;SDS011;73959;52.130;5.584;2024-02-28T11:03:50;54.40;;;33.45;;
83929;SDS011;73959;52.130;5.584;2024-02-28T11:06:17;59.90;;;35.63;;
83929;SDS011;73959;52.130;5.584;2024-02-28T11:08:45;60.72;;;35.17;;
83929;SDS011;73959;52.130;5.584;2024-02-28T11:11:13;63.35;;;36.70;;
83929;SDS011;73959;52.130;5.584;2024-02-28T11:13:41;59.00;;;35.80;;
83929;SDS011;73959;52.130;5.584;2024-02-28T11:16:16;59.22;;;36.10;;
83929;SDS011;73959;52.130;5.584;2024-02-28T11:18:49;62.70;;;35.92;;
83929;SDS011;73959;52.130;5.584;2024-02-28T11:21:15;59.15;;;35.72;;
83929;SDS011;73959;52.130;5.584;2024-02-28T11:23:42;60.92;;;36.28;;
83929;SDS011;73959;52.130;5.584;2024-02-28T11:26:12;57.25;;;35.15;;
83929;SDS011;73959;52.130;5.584;2024-02-28T11:28:38;59.60;;;34.85;;
83929;SDS011;73959;52.130;5.584;2024-02-28T11:31:04;57.65;;;35.42;;
83929;SDS011;73959;52.130;5.584;2024-02-28T11:33:30;58.17;;;34.97;;
83929;SDS011;73959;52.130;5.584;2024-02-28T11:35:58;59.53;;;35.42;;
83929;SDS011;73959;52.130;5.584;2024-02-28T11:38:25;60.75;;;35.78;;
83929;SDS011;73959;52.130;5.584;2024-02-28T11:40:51;55.95;;;32.80;;
83929;SDS011;73959;52.130;5.584;2024-02-28T11:43:17;56.65;;;35.90;;
83929;SDS011;73959;52.130;5.584;2024-02-28T11:45:43;56.25;;;33.88;;
83929;SDS011;73959;52.130;5.584;2024-02-28T11:48:11;56.05;;;32.95;;
83929;SDS011;73959;52.130;5.584;2024-02-28T11:50:38;54.40;;;34.38;;
83929;SDS011;73959;52.130;5.584;2024-02-28T11:53:05;59.63;;;34.50;;
83929;SDS011;73959;52.130;5.584;2024-02-28T11:55:31;50.25;;;32.10;;
83929;SDS011;73959;52.130;5.584;2024-02-28T11:57:57;59.38;;;33.88;;
83929;SDS011;73959;52.130;5.584;2024-02-28T12:00:23;49.58;;;31.55;;
83929;SDS011;73959;52.130;5.584;2024-02-28T12:02:49;52.70;;;33.35;;
83929;SDS011;73959;52.130;5.584;2024-02-28T12:05:15;55.67;;;33.35;;
83929;SDS011;73959;52.130;5.584;2024-02-28T12:07:41;54.03;;;33.35;;
83929;SDS011;73959;52.130;5.584;2024-02-28T12:10:08;53.97;;;34.05;;
83929;SDS011;73959;52.130;5.584;2024-02-28T12:12:34;58.72;;;33.50;;
83929;SDS011;73959;52.130;5.584;2024-02-28T12:15:01;54.88;;;32.25;;
83929;SDS011;73959;52.130;5.584;2024-02-28T12:17:30;49.22;;;31.70;;
83929;SDS011;73959;52.130;5.584;2024-02-28T12:19:56;61.95;;;33.17;;
83929;SDS011;73959;52.130;5.584;2024-02-28T12:22:24;55.92;;;33.22;;
83929;SDS011;73959;52.130;5.584;2024-02-28T12:24:50;55.53;;;34.40;;
83929;SDS011;73959;52.130;5.584;2024-02-28T12:27:16;54.63;;;32.88;;
83929;SDS011;73959;52.130;5.584;2024-02-28T12:29:42;55.20;;;33.13;;
83929;SDS011;73959;52.130;5.584;2024-02-28T12:32:08;55.80;;;33.33;;
83929;SDS011;73959;52.130;5.584;2024-02-28T12:34:34;56.22;;;33.47;;
83929;SDS011;73959;52.130;5.584;2024-02-28T12:37:00;53.25;;;32.85;;
83929;SDS011;73959;52.130;5.584;2024-02-28T12:39:27;54.88;;;33.13;;
83929;SDS011;73959;52.130;5.584;2024-02-28T12:41:53;53.95;;;32.80;;
83929;SDS011;73959;52.130;5.584;2024-02-28T12:44:19;57.35;;;33.22;;
83929;SDS011;73959;52.130;5.584;2024-02-28T12:46:45;54.72;;;32.50;;
83929;SDS011;73959;52.130;5.584;2024-02-28T12:49:11;50.60;;;30.63;;
83929;SDS011;73959;52.130;5.584;2024-02-28T12:51:44;58.15;;;31.63;;
83929;SDS011;73959;52.130;5.584;2024-02-28T12:54:10;53.63;;;31.05;;
83929;SDS011;73959;52.130;5.584;2024-02-28T12:56:39;55.47;;;32.03;;
83929;SDS011;73959;52.130;5.584;2024-02-28T12:59:07;53.58;;;30.98;;
83929;SDS011;73959;52.130;5.584;2024-02-28T13:01:34;54.75;;;30.15;;
83929;SDS011;73959;52.130;5.584;2024-02-28T13:04:00;50.30;;;30.52;;
83929;SDS011;73959;52.130;5.584;2024-02-28T13:06:26;52.50;;;29.42;;
83929;SDS011;73959;52.130;5.584;2024-02-28T13:08:52;52.38;;;28.88;;
83929;SDS011;73959;52.130;5.584;2024-02-28T13:11:18;50.60;;;29.40;;
83929;SDS011;73959;52.130;5.584;2024-02-28T13:13:50;50.40;;;28.30;;
83929;SDS011;73959;52.130;5.584;2024-02-28T13:16:17;51.85;;;29.38;;
83929;SDS011;73959;52.130;5.584;2024-02-28T13:18:43;49.97;;;28.48;;
83929;SDS011;73959;52.130;5.584;2024-02-28T13:21:10;43.20;;;28.00;;
83929;SDS011;73959;52.130;5.584;2024-02-28T13:23:36;49.15;;;29.02;;
83929;SDS011;73959;52.130;5.584;2024-02-28T13:26:05;45.15;;;26.85;;
83929;SDS011;73959;52.130;5.584;2024-02-28T13:28:31;40.30;;;26.92;;
83929;SDS011;73959;52.130;5.584;2024-02-28T13:31:01;43.35;;;26.30;;
83929;SDS011;73959;52.130;5.584;2024-02-28T13:33:27;47.50;;;28.40;;
83929;SDS011;73959;52.130;5.584;2024-02-28T13:35:53;47.00;;;28.70;;
83929;SDS011;73959;52.130;5.584;2024-02-28T13:38:20;47.97;;;29.23;;
83929;SDS011;73959;52.130;5.584;2024-02-28T13:40:46;49.55;;;28.67;;
83929;SDS011;73959;52.130;5.584;2024-02-28T13:43:13;41.38;;;26.15;;
83929;SDS011;73959;52.130;5.584;2024-02-28T13:45:39;37.35;;;25.33;;
83929;SDS011;73959;52.130;5.584;2024-02-28T13:48:23;44.05;;;27.17;;
83929;SDS011;73959;52.130;5.584;2024-02-28T13:50:50;44.58;;;25.27;;
83929;SDS011;73959;52.130;5.584;2024-02-28T13:53:16;35.83;;;24.17;;
83929;SDS011;73959;52.130;5.584;2024-02-28T13:55:42;36.13;;;24.05;;
83929;SDS011;73959;52.130;5.584;2024-02-28T13:58:10;36.67;;;25.08;;
83929;SDS011;73959;52.130;5.584;2024-02-28T14:00:36;33.58;;;22.75;;
83929;SDS011;73959;52.130;5.584;2024-02-28T14:03:03;35.28;;;23.15;;
83929;SDS011;73959;52.130;5.584;2024-02-28T14:05:29;40.78;;;25.17;;
83929;SDS011;73959;52.130;5.584;2024-02-28T14:07:55;39.47;;;25.20;;
83929;SDS011;73959;52.130;5.584;2024-02-28T14:10:22;38.33;;;23.70;;
83929;SDS011;73959;52.130;5.584;2024-02-28T14:12:48;36.22;;;22.05;;
83929;SDS011;73959;52.130;5.584;2024-02-28T14:15:14;35.67;;;23.25;;
83929;SDS011;73959;52.130;5.584;2024-02-28T14:17:40;34.90;;;22.50;;